createdAt,value
2022-08-14T00:02:36.975Z,28.80
2022-08-14T00:05:06.433Z,28.80
2022-08-14T00:07:41.801Z,28.80
2022-08-14T00:10:51.569Z,28.80
2022-08-14T00:13:06.759Z,28.70
2022-08-14T00:15:44.388Z,28.70
2022-08-14T00:18:30.438Z,28.70
2022-08-14T00:21:11.307Z,28.70
2022-08-14T00:23:43.307Z,28.70
2022-08-14T00:26:22.911Z,28.70
2022-08-14T00:28:52.560Z,28.70
2022-08-14T00:31:30.827Z,28.70
2022-08-14T00:34:36.860Z,28.70
2022-08-14T00:36:53.515Z,28.70
2022-08-14T00:39:24.125Z,28.70
2022-08-14T00:41:54.184Z,28.70
2022-08-14T00:44:32.113Z,28.70
2022-08-14T00:47:03.468Z,28.70
2022-08-14T00:49:38.194Z,28.70
2022-08-14T00:52:14.071Z,28.70
2022-08-14T00:54:50.640Z,28.70
2022-08-14T00:57:20.719Z,28.70
2022-08-14T00:59:50.731Z,28.70
2022-08-14T01:02:24.644Z,28.70
2022-08-14T01:04:59.100Z,28.70
2022-08-14T01:07:38.811Z,28.70
2022-08-14T01:10:20.780Z,28.60
2022-08-14T01:12:51.921Z,28.60
2022-08-14T01:15:31.557Z,28.60
2022-08-14T01:18:28.864Z,28.60
2022-08-14T01:21:06.322Z,28.60
2022-08-14T01:23:41.726Z,28.60
2022-08-14T01:26:23.494Z,28.60
2022-08-14T01:29:05.095Z,28.60
2022-08-14T01:31:37.099Z,28.60
2022-08-14T01:35:20.114Z,28.60
2022-08-14T01:36:55.521Z,28.60
2022-08-14T01:39:25.690Z,28.60
2022-08-14T01:41:56.276Z,28.60
2022-08-14T01:44:33.949Z,28.60
2022-08-14T01:47:21.686Z,28.60
2022-08-14T01:49:59.101Z,28.60
2022-08-14T01:52:34.095Z,28.60
2022-08-14T01:55:22.069Z,28.60
2022-08-14T01:58:02.203Z,28.50
2022-08-14T02:00:39.909Z,28.50
2022-08-14T02:03:08.684Z,28.60
2022-08-14T02:05:39.029Z,28.50
2022-08-14T02:08:09.959Z,28.50
2022-08-14T02:10:47.154Z,28.50
2022-08-14T02:13:19.725Z,28.50
2022-08-14T02:15:48.563Z,28.50
2022-08-14T02:18:19.116Z,28.50
2022-08-14T02:20:49.087Z,28.50
2022-08-14T02:23:27.786Z,28.50
2022-08-14T02:26:24.348Z,28.50
2022-08-14T02:28:59.834Z,28.50
2022-08-14T02:31:42.538Z,28.50
2022-08-14T02:34:22.053Z,28.50
2022-08-14T02:37:06.241Z,28.50
2022-08-14T02:39:37.465Z,28.50
2022-08-14T02:42:13.282Z,28.50
2022-08-14T02:44:49.393Z,28.50
2022-08-14T02:47:20.849Z,28.50
2022-08-14T02:49:54.975Z,28.50
2022-08-14T02:52:56.305Z,28.50
2022-08-14T02:55:19.963Z,28.50
2022-08-14T02:58:03.384Z,28.40
2022-08-14T03:00:35.474Z,28.40
2022-08-14T03:03:08.499Z,28.40
2022-08-14T03:05:40.974Z,28.40
2022-08-14T03:08:15.778Z,28.40
2022-08-14T03:10:48.959Z,28.40
2022-08-14T03:13:21.021Z,28.40
2022-08-14T03:15:55.953Z,28.40
2022-08-14T03:18:30.582Z,28.40
2022-08-14T03:21:02.153Z,28.40
2022-08-14T03:23:37.742Z,28.30
2022-08-14T03:26:13.256Z,28.40
2022-08-14T03:28:51.283Z,28.40
2022-08-14T03:31:26.112Z,28.40
2022-08-14T03:33:56.858Z,28.30
2022-08-14T03:37:50.797Z,28.30
2022-08-14T03:39:23.032Z,28.30
2022-08-14T03:41:54.149Z,28.30
2022-08-14T03:45:18.747Z,28.30
2022-08-14T03:47:15.200Z,28.30
2022-08-14T03:49:50.079Z,28.30
2022-08-14T03:52:39.220Z,28.30
2022-08-14T03:55:08.964Z,28.30
2022-08-14T03:57:38.145Z,28.30
2022-08-14T04:00:43.651Z,28.30
2022-08-14T04:03:02.419Z,28.20
2022-08-14T04:05:42.637Z,28.20
2022-08-14T04:08:29.020Z,28.20
2022-08-14T04:10:59.413Z,28.20
2022-08-14T04:13:31.799Z,28.20
2022-08-14T04:16:06.836Z,28.20
2022-08-14T04:18:42.338Z,28.20
2022-08-14T04:21:11.800Z,28.20
2022-08-14T04:23:41.138Z,28.20
2022-08-14T04:26:14.744Z,28.20
2022-08-14T04:29:07.632Z,28.20
2022-08-14T04:33:01.605Z,28.20
2022-08-14T04:34:33.831Z,28.10
2022-08-14T04:37:22.343Z,28.10
2022-08-14T04:40:11.774Z,28.10
2022-08-14T04:42:57.762Z,28.10
2022-08-14T04:45:36.365Z,28.10
2022-08-14T04:48:38.676Z,28.10
2022-08-14T04:51:06.094Z,28.10
2022-08-14T04:53:42.879Z,28.10
2022-08-14T04:56:30.675Z,28.10
2022-08-14T04:59:10.474Z,28.10
2022-08-14T05:01:49.824Z,28.10
2022-08-14T05:04:22.155Z,28.00
2022-08-14T05:06:54.144Z,28.00
2022-08-14T05:09:23.776Z,28.00
2022-08-14T05:11:53.160Z,28.00
2022-08-14T05:14:45.357Z,28.00
2022-08-14T05:17:12.317Z,28.00
2022-08-14T05:19:44.877Z,28.00
2022-08-14T05:22:30.746Z,28.00
2022-08-14T05:24:59.364Z,28.00
2022-08-14T05:27:31.004Z,28.00
2022-08-14T05:30:01.313Z,28.00
2022-08-14T05:32:30.362Z,28.00
2022-08-14T05:35:01.191Z,27.90
2022-08-14T05:37:30.970Z,27.90
2022-08-14T05:40:02.463Z,27.80
2022-08-14T05:42:32.085Z,27.80
2022-08-14T05:45:04.135Z,27.70
2022-08-14T05:47:39.067Z,27.70
2022-08-14T05:50:17.556Z,27.70
2022-08-14T05:52:49.500Z,27.60
2022-08-14T05:55:22.068Z,27.60
2022-08-14T05:57:53.214Z,27.60
2022-08-14T06:00:28.488Z,27.60
2022-08-14T06:03:00.291Z,27.60
2022-08-14T06:05:32.705Z,27.60
2022-08-14T06:08:08.828Z,27.60
2022-08-14T06:10:54.842Z,27.50
2022-08-14T06:13:24.282Z,27.50
2022-08-14T06:16:00.407Z,27.50
2022-08-14T06:18:32.210Z,27.50
2022-08-14T06:21:02.332Z,27.50
2022-08-14T06:23:30.953Z,27.50
2022-08-14T06:25:59.273Z,27.50
2022-08-14T06:28:28.710Z,27.50
2022-08-14T06:30:57.641Z,27.50
2022-08-14T06:33:30.043Z,27.50
2022-08-14T06:36:20.015Z,27.40
2022-08-14T06:38:50.497Z,27.40
2022-08-14T06:41:20.775Z,27.50
2022-08-14T06:43:55.793Z,27.50
2022-08-14T06:46:34.342Z,27.50
2022-08-14T06:49:05.683Z,27.60
2022-08-14T06:51:38.818Z,27.70
2022-08-14T06:54:13.916Z,27.70
2022-08-14T06:56:54.473Z,27.80
2022-08-14T06:59:25.488Z,27.90
2022-08-14T07:05:22.715Z,27.90
2022-08-14T07:07:53.485Z,28.00
2022-08-14T07:10:24.947Z,27.90
2022-08-14T07:13:03.890Z,27.80
2022-08-14T07:15:39.738Z,27.70
2022-08-14T07:18:12.256Z,27.70
2022-08-14T07:20:42.474Z,27.60
2022-08-14T07:23:19.763Z,27.60
2022-08-14T07:25:51.701Z,27.60
2022-08-14T07:28:24.480Z,27.60
2022-08-14T07:30:57.506Z,27.60
2022-08-14T07:33:36.569Z,27.60
2022-08-14T07:36:26.272Z,27.60
2022-08-14T07:38:56.619Z,27.60
2022-08-14T07:41:25.353Z,27.60
2022-08-14T07:44:28.958Z,27.60
2022-08-14T07:46:51.830Z,27.60
2022-08-14T07:49:20.999Z,27.60
2022-08-14T07:51:52.909Z,27.60
2022-08-14T07:54:29.850Z,27.50
2022-08-14T07:57:00.133Z,27.50
2022-08-14T07:59:41.904Z,27.40
2022-08-14T08:02:19.558Z,27.40
2022-08-14T08:04:54.490Z,27.40
2022-08-14T08:07:24.132Z,27.40
2022-08-14T08:09:57.357Z,27.50
2022-08-14T08:12:31.055Z,27.50
2022-08-14T08:15:05.840Z,27.50
2022-08-14T08:17:38.513Z,27.50
2022-08-14T08:20:11.687Z,27.60
2022-08-14T08:22:48.460Z,27.50
2022-08-14T08:25:20.176Z,27.60
2022-08-14T08:27:59.925Z,27.60
2022-08-14T08:30:29.210Z,27.60
2022-08-14T08:33:01.281Z,27.60
2022-08-14T08:35:46.930Z,27.60
2022-08-14T08:39:15.789Z,27.60
2022-08-14T08:41:11.570Z,27.60
2022-08-14T08:43:46.088Z,27.60
2022-08-14T08:46:23.814Z,27.60
2022-08-14T08:51:25.080Z,27.60
2022-08-14T08:54:00.975Z,27.60
2022-08-14T08:56:42.947Z,27.60
2022-08-14T08:59:20.363Z,27.60
2022-08-14T09:01:51.593Z,27.60
2022-08-14T09:04:24.862Z,27.60
2022-08-14T09:07:09.778Z,27.60
2022-08-14T09:09:54.140Z,27.60
2022-08-14T09:12:46.648Z,27.60
2022-08-14T09:15:15.761Z,27.60
2022-08-14T09:17:46.934Z,27.60
2022-08-14T09:20:26.333Z,27.60
2022-08-14T09:23:00.440Z,27.60
2022-08-14T09:25:59.037Z,27.60
2022-08-14T09:28:20.171Z,27.60
2022-08-14T09:30:55.498Z,27.60
2022-08-14T09:33:55.888Z,27.60
2022-08-14T09:36:45.447Z,27.60
2022-08-14T09:39:26.071Z,27.60
2022-08-14T09:42:21.989Z,27.60
2022-08-14T09:45:15.547Z,27.60
2022-08-14T09:47:49.112Z,27.60
2022-08-14T09:50:25.750Z,27.60
2022-08-14T09:52:59.571Z,27.60
2022-08-14T09:55:41.474Z,27.60
2022-08-14T09:58:15.107Z,27.60
2022-08-14T10:00:52.897Z,27.60
2022-08-14T10:03:33.870Z,27.60
2022-08-14T10:06:12.080Z,27.60
2022-08-14T10:08:51.630Z,27.60
2022-08-14T10:11:23.309Z,27.60
2022-08-14T10:13:56.008Z,27.60
2022-08-14T10:16:35.153Z,27.60
2022-08-14T10:19:07.427Z,27.60
2022-08-14T10:21:58.560Z,27.60
2022-08-14T10:24:31.264Z,27.60
2022-08-14T10:27:06.611Z,27.60
2022-08-14T10:29:38.170Z,27.60
2022-08-14T10:32:17.238Z,27.60
2022-08-14T10:34:52.915Z,27.60
2022-08-14T10:37:23.674Z,27.60
2022-08-14T10:40:10.391Z,27.60
2022-08-14T10:42:41.207Z,27.60
2022-08-14T10:45:21.863Z,27.70
2022-08-14T10:48:07.927Z,27.60
2022-08-14T10:50:46.391Z,27.70
2022-08-14T10:53:15.988Z,27.70
2022-08-14T10:55:48.261Z,27.70
2022-08-14T10:58:29.855Z,27.70
2022-08-14T11:01:05.571Z,27.70
2022-08-14T11:03:56.871Z,27.70
2022-08-14T11:06:25.590Z,27.60
2022-08-14T11:08:56.616Z,27.60
2022-08-14T11:11:28.532Z,27.60
2022-08-14T11:14:09.478Z,27.60
2022-08-14T11:16:40.675Z,27.60
2022-08-14T11:19:13.129Z,27.60
2022-08-14T11:21:46.554Z,27.70
2022-08-14T11:24:54.753Z,27.70
2022-08-14T11:27:06.676Z,27.70
2022-08-14T11:29:37.014Z,27.70
2022-08-14T11:32:07.758Z,27.70
2022-08-14T11:34:39.494Z,27.70
2022-08-14T11:37:23.513Z,27.70
2022-08-14T11:39:55.507Z,27.70
2022-08-14T11:43:07.894Z,27.70
2022-08-14T11:45:18.921Z,27.70
2022-08-14T11:48:13.710Z,27.70
2022-08-14T11:50:43.449Z,27.70
2022-08-14T11:53:22.791Z,27.70
2022-08-14T11:55:58.410Z,27.70
2022-08-14T11:58:29.763Z,27.70
2022-08-14T12:01:04.349Z,27.70
2022-08-14T12:03:51.396Z,27.70
2022-08-14T12:06:29.807Z,27.70
2022-08-14T12:09:13.861Z,27.70
2022-08-14T12:11:47.582Z,27.70
2022-08-14T12:14:30.850Z,27.70
2022-08-14T12:17:09.539Z,27.70
2022-08-14T12:19:50.602Z,27.70
2022-08-14T12:22:33.374Z,27.70
2022-08-14T12:25:08.408Z,27.70
2022-08-14T12:27:46.726Z,27.70
2022-08-14T12:30:42.437Z,27.70
2022-08-14T12:33:26.946Z,27.70
2022-08-14T12:36:04.091Z,27.70
2022-08-14T12:38:41.279Z,27.70
2022-08-14T12:41:16.269Z,27.70
2022-08-14T12:43:51.582Z,27.70
2022-08-14T12:46:27.455Z,27.80
2022-08-14T12:48:58.925Z,27.80
2022-08-14T12:51:30.914Z,27.80
2022-08-14T12:54:02.286Z,27.80
2022-08-14T12:56:33.125Z,27.80
2022-08-14T12:59:02.810Z,27.80
2022-08-14T13:01:59.611Z,27.80
2022-08-14T13:04:22.815Z,27.80
2022-08-14T13:06:52.936Z,27.80
2022-08-14T13:09:36.365Z,27.80
2022-08-14T13:12:32.576Z,27.80
2022-08-14T13:14:59.836Z,27.80
2022-08-14T13:17:31.377Z,27.80
2022-08-14T13:20:10.195Z,27.80
2022-08-14T13:22:44.375Z,27.90
2022-08-14T13:25:16.091Z,27.90
2022-08-14T13:27:50.088Z,27.90
2022-08-14T13:30:24.944Z,27.90
2022-08-14T13:32:54.450Z,27.90
2022-08-14T13:35:26.400Z,27.90
2022-08-14T13:37:55.386Z,27.90
2022-08-14T13:40:27.710Z,27.90
2022-08-14T13:42:57.673Z,27.90
2022-08-14T13:45:33.785Z,27.90
2022-08-14T13:48:19.211Z,27.90
2022-08-14T13:51:04.412Z,27.90
2022-08-14T13:53:38.236Z,27.90
2022-08-14T13:56:36.181Z,27.90
2022-08-14T13:59:04.830Z,27.90
2022-08-14T14:01:42.664Z,28.00
2022-08-14T14:04:19.597Z,28.00
2022-08-14T14:06:50.995Z,28.00
2022-08-14T14:09:32.415Z,28.00
2022-08-14T14:12:38.079Z,28.00
2022-08-14T14:14:57.882Z,28.00
2022-08-14T14:17:33.550Z,28.00
2022-08-14T14:20:04.414Z,28.00
2022-08-14T14:22:35.998Z,28.00
2022-08-14T14:25:22.638Z,28.00
2022-08-14T14:27:53.365Z,28.00
2022-08-14T14:30:52.645Z,28.00
2022-08-14T14:33:43.978Z,28.00
2022-08-14T14:36:05.194Z,28.10
2022-08-14T14:38:35.363Z,28.20
2022-08-14T14:41:05.683Z,28.20
2022-08-14T14:43:41.330Z,28.30
2022-08-14T14:46:16.338Z,28.30
2022-08-14T14:48:54.157Z,28.30
2022-08-14T14:51:24.298Z,28.30
2022-08-14T14:53:54.419Z,28.20
2022-08-14T14:56:50.878Z,28.20
2022-08-14T14:59:15.288Z,28.20
2022-08-14T15:01:49.104Z,28.20
2022-08-14T15:04:19.948Z,28.20
2022-08-14T15:06:50.109Z,28.20
2022-08-14T15:09:23.700Z,28.20
2022-08-14T15:11:52.544Z,28.20
2022-08-14T15:14:55.434Z,28.20
2022-08-14T15:17:10.867Z,28.20
2022-08-14T15:19:39.689Z,28.20
2022-08-14T15:22:10.666Z,28.20
2022-08-14T15:24:42.170Z,28.20
2022-08-14T15:27:15.233Z,28.20
2022-08-14T15:29:56.114Z,28.20
2022-08-14T15:32:24.402Z,28.30
2022-08-14T15:34:53.764Z,28.20
2022-08-14T15:37:25.386Z,28.30
2022-08-14T15:40:01.930Z,28.30
2022-08-14T15:42:32.547Z,28.30
2022-08-14T15:45:02.982Z,28.30
2022-08-14T15:47:34.664Z,28.30
2022-08-14T15:50:05.762Z,28.30
2022-08-14T15:52:43.102Z,28.30
2022-08-14T15:55:16.349Z,28.30
2022-08-14T15:58:01.625Z,28.30
2022-08-14T16:00:52.439Z,28.30
2022-08-14T16:03:24.871Z,28.30
2022-08-14T16:05:56.830Z,28.30
2022-08-14T16:08:29.777Z,28.40
2022-08-14T16:11:00.462Z,28.40
2022-08-14T16:13:39.824Z,28.40
2022-08-14T16:16:49.520Z,28.40
2022-08-14T16:22:57.147Z,28.40
2022-08-14T16:24:59.842Z,28.40
2022-08-14T16:27:33.610Z,28.40
2022-08-14T16:30:10.799Z,28.40
2022-08-14T16:32:55.320Z,28.40
2022-08-14T16:35:26.461Z,28.40
2022-08-14T16:40:23.757Z,28.40
2022-08-14T16:44:02.778Z,28.50
2022-08-14T16:46:37.318Z,28.50
2022-08-14T16:49:10.228Z,28.50
2022-08-14T16:51:40.718Z,28.50
2022-08-14T16:54:34.618Z,28.50
2022-08-14T16:57:20.777Z,28.50
2022-08-14T16:59:58.999Z,28.50
2022-08-14T17:02:36.300Z,28.50
2022-08-14T17:05:19.435Z,28.50
2022-08-14T17:08:42.594Z,28.50
2022-08-14T17:11:10.186Z,28.50
2022-08-14T17:13:59.738Z,28.50
2022-08-14T17:16:37.428Z,28.50
2022-08-14T17:19:10.002Z,28.60
2022-08-14T17:21:47.096Z,28.60
2022-08-14T17:24:58.364Z,28.60
2022-08-14T17:27:07.864Z,28.60
2022-08-14T17:29:44.723Z,28.60
2022-08-14T17:35:38.957Z,28.60
2022-08-14T17:38:33.714Z,28.60
2022-08-14T17:41:27.342Z,28.60
2022-08-14T17:44:20.244Z,28.60
2022-08-14T17:46:56.909Z,28.60
2022-08-14T17:49:32.060Z,28.60
2022-08-14T17:52:07.510Z,28.70
2022-08-14T17:54:59.155Z,28.60
2022-08-14T17:57:35.487Z,28.70
2022-08-14T18:00:13.322Z,28.70
2022-08-14T18:02:50.942Z,28.70
2022-08-14T18:06:06.602Z,28.70
2022-08-14T18:08:32.845Z,28.70
2022-08-14T18:11:05.282Z,28.70
2022-08-14T18:13:52.058Z,28.70
2022-08-14T18:16:22.294Z,28.70
2022-08-14T18:18:52.098Z,28.70
2022-08-14T18:21:42.512Z,28.70
2022-08-14T18:24:27.881Z,28.70
2022-08-14T18:27:08.748Z,28.70
2022-08-14T18:29:43.526Z,28.70
2022-08-14T18:32:47.313Z,28.80
2022-08-14T18:35:45.947Z,28.80
2022-08-14T18:38:26.191Z,28.80
2022-08-14T18:41:36.916Z,28.80
2022-08-14T18:44:10.374Z,28.80
2022-08-14T18:47:15.338Z,28.80
2022-08-14T18:50:26.988Z,28.80
2022-08-14T18:53:07.248Z,28.80
2022-08-14T18:56:00.093Z,28.80
2022-08-14T18:58:49.107Z,28.80
2022-08-14T19:01:28.860Z,28.80
2022-08-14T19:04:00.718Z,28.80
2022-08-14T19:07:16.226Z,28.80
2022-08-14T19:09:58.028Z,28.90
2022-08-14T19:13:00.412Z,28.90
2022-08-14T19:15:31.449Z,28.90
2022-08-14T19:18:10.813Z,28.90
2022-08-14T19:20:48.966Z,28.90
2022-08-14T19:23:42.604Z,28.90
2022-08-14T19:26:35.716Z,28.90
2022-08-14T19:29:38.058Z,28.90
2022-08-14T19:32:39.779Z,28.90
2022-08-14T19:35:50.005Z,28.90
2022-08-14T19:38:52.198Z,28.90
2022-08-14T19:41:29.430Z,28.90
2022-08-14T19:44:10.194Z,28.90
2022-08-14T19:47:01.386Z,28.90
2022-08-14T19:50:24.781Z,28.90
2022-08-14T19:52:29.770Z,28.90
2022-08-14T19:54:59.865Z,28.90
2022-08-14T19:57:30.902Z,28.90
2022-08-14T20:00:28.342Z,28.90
2022-08-14T20:03:10.482Z,28.90
2022-08-14T20:05:45.709Z,28.90
2022-08-14T20:10:59.135Z,28.90
2022-08-14T20:11:18.824Z,28.90
2022-08-14T20:14:01.029Z,29.00
2022-08-14T20:16:32.549Z,28.90
2022-08-14T20:19:15.239Z,29.00
2022-08-14T20:22:04.621Z,28.90
2022-08-14T20:24:41.724Z,29.00
2022-08-14T20:27:33.215Z,29.00
2022-08-14T20:30:35.634Z,29.00
2022-08-14T20:33:11.520Z,29.00
2022-08-14T20:35:44.392Z,29.00
2022-08-14T20:38:29.359Z,29.00
2022-08-14T20:41:06.932Z,29.00
2022-08-14T20:43:59.461Z,29.00
2022-08-14T20:46:31.080Z,29.00
2022-08-14T20:49:01.266Z,29.00
2022-08-14T20:51:47.299Z,29.00
2022-08-14T20:54:34.578Z,29.00
2022-08-14T20:57:13.926Z,29.00
2022-08-14T20:59:44.078Z,29.00
2022-08-14T21:02:38.563Z,29.00
2022-08-14T21:05:34.143Z,29.00
2022-08-14T21:08:08.356Z,29.00
2022-08-14T21:10:51.625Z,29.00
2022-08-14T21:14:09.336Z,29.00
2022-08-14T21:16:34.509Z,29.00
2022-08-14T21:19:03.908Z,29.00
2022-08-14T21:21:41.355Z,29.00
2022-08-14T21:24:40.130Z,29.00
2022-08-14T21:27:12.884Z,29.00
2022-08-14T21:29:53.916Z,29.00
2022-08-14T21:32:47.156Z,29.00
2022-08-14T21:35:22.888Z,29.00
2022-08-14T21:37:52.508Z,29.00
2022-08-14T21:40:40.806Z,29.00
2022-08-14T21:43:17.534Z,29.00
2022-08-14T21:45:51.697Z,29.00
2022-08-14T21:48:25.307Z,29.00
2022-08-14T21:51:01.628Z,29.00
2022-08-14T21:53:59.279Z,29.00
2022-08-14T21:56:38.587Z,29.10
2022-08-14T21:59:17.549Z,29.00
2022-08-14T22:02:00.831Z,29.00
2022-08-14T22:04:33.653Z,29.00
2022-08-14T22:07:07.218Z,29.10
2022-08-14T22:09:37.069Z,29.10
2022-08-14T22:12:08.468Z,29.00
2022-08-14T22:14:43.813Z,29.10
2022-08-14T22:17:17.270Z,29.00
2022-08-14T22:19:54.302Z,29.10
2022-08-14T22:22:26.658Z,29.10
2022-08-14T22:25:00.332Z,29.10
2022-08-14T22:27:32.254Z,29.00
2022-08-14T22:30:03.057Z,29.10
2022-08-14T22:32:35.267Z,29.10
2022-08-14T22:35:23.303Z,29.10
2022-08-14T22:38:36.242Z,29.10
2022-08-14T22:41:04.262Z,29.10
2022-08-14T22:43:35.138Z,29.10
2022-08-14T22:46:14.270Z,29.10
2022-08-14T22:48:45.253Z,29.10
2022-08-14T22:51:16.097Z,29.10
2022-08-14T22:53:52.221Z,29.00
2022-08-14T22:56:22.209Z,29.00
2022-08-14T22:58:59.616Z,29.00
2022-08-14T23:01:55.172Z,29.00
2022-08-14T23:04:35.439Z,29.00
2022-08-14T23:07:21.915Z,29.00
2022-08-14T23:09:57.502Z,29.00
2022-08-14T23:12:31.583Z,29.00
2022-08-14T23:15:01.239Z,29.00
2022-08-14T23:17:39.141Z,29.00
2022-08-14T23:20:19.231Z,29.00
2022-08-14T23:22:52.329Z,29.00
2022-08-14T23:25:49.989Z,29.00
2022-08-14T23:28:35.017Z,29.00
2022-08-14T23:31:06.126Z,29.00
2022-08-14T23:33:41.913Z,29.00
2022-08-14T23:36:31.516Z,29.00
2022-08-14T23:39:07.292Z,29.00
2022-08-14T23:41:46.225Z,29.00
2022-08-14T23:44:22.823Z,29.00
2022-08-14T23:46:57.031Z,29.00
2022-08-14T23:49:56.687Z,29.00
2022-08-14T23:53:07.419Z,29.00
2022-08-14T23:55:11.399Z,29.00
2022-08-14T23:57:43.863Z,29.00
